createdAt,value
2022-08-22T00:00:13.367Z,38.11
2022-08-22T00:02:46.056Z,30.16
2022-08-22T00:02:59.456Z,38.14
2022-08-22T00:03:00.125Z,26.79
2022-08-22T00:03:10.195Z,30.95
2022-08-22T00:05:59.364Z,38.45
2022-08-22T00:08:41.929Z,38.01
2022-08-22T00:11:34.824Z,38.01
2022-08-22T00:14:26.011Z,38.05
2022-08-22T00:17:11.395Z,38.30
2022-08-22T00:20:18.761Z,38.38
2022-08-22T00:23:02.517Z,38.54
2022-08-22T00:25:44.682Z,38.67
2022-08-22T00:28:21.048Z,38.90
2022-08-22T00:31:08.464Z,38.46
2022-08-22T00:33:45.492Z,38.39
2022-08-22T00:36:30.447Z,38.37
2022-08-22T00:39:10.332Z,37.73
2022-08-22T00:41:56.712Z,38.14
2022-08-22T00:44:35.942Z,38.75
2022-08-22T00:47:17.316Z,38.90
2022-08-22T00:50:17.745Z,38.75
2022-08-22T00:53:12.526Z,39.09
2022-08-22T00:55:48.699Z,38.95
2022-08-22T00:58:33.468Z,38.86
2022-08-22T01:01:07.238Z,39.18
2022-08-22T01:04:04.460Z,39.16
2022-08-22T01:06:53.184Z,39.50
2022-08-22T01:09:38.740Z,39.47
2022-08-22T01:12:27.374Z,39.63
2022-08-22T01:15:03.184Z,39.75
2022-08-22T01:17:54.969Z,39.56
2022-08-22T01:20:35.568Z,39.80
2022-08-22T01:23:36.655Z,40.02
2022-08-22T01:26:26.804Z,40.13
2022-08-22T01:29:08.510Z,40.43
2022-08-22T01:32:09.797Z,40.23
2022-08-22T01:34:57.251Z,40.39
2022-08-22T01:37:47.461Z,40.62
2022-08-22T01:40:36.827Z,40.53
2022-08-22T01:44:10.517Z,40.72
2022-08-22T01:47:17.961Z,40.59
2022-08-22T01:50:18.478Z,40.47
2022-08-22T01:52:51.278Z,40.46
2022-08-22T01:55:36.822Z,40.51
2022-08-22T01:58:17.880Z,40.82
2022-08-22T02:01:11.308Z,40.80
2022-08-22T02:04:01.162Z,40.79
2022-08-22T02:06:45.568Z,40.99
2022-08-22T02:09:23.893Z,40.95
2022-08-22T02:12:21.912Z,41.20
2022-08-22T02:15:19.368Z,41.17
2022-08-22T02:18:09.303Z,40.93
2022-08-22T02:20:48.653Z,40.90
2022-08-22T02:23:19.503Z,40.96
2022-08-22T02:25:53.127Z,41.01
2022-08-22T02:28:38.116Z,41.04
2022-08-22T02:31:20.352Z,41.22
2022-08-22T02:33:59.232Z,41.39
2022-08-22T02:36:33.312Z,41.60
2022-08-22T02:39:24.123Z,41.59
2022-08-22T02:42:13.038Z,41.61
2022-08-22T02:44:53.166Z,41.71
2022-08-22T02:47:47.539Z,41.55
2022-08-22T02:50:17.713Z,41.52
2022-08-22T02:53:09.366Z,41.78
2022-08-22T02:56:15.090Z,41.87
2022-08-22T02:59:14.718Z,41.48
2022-08-22T03:01:45.618Z,41.51
2022-08-22T03:04:26.706Z,41.42
2022-08-22T03:07:20.686Z,41.32
2022-08-22T03:09:51.312Z,41.45
2022-08-22T03:12:40.476Z,41.30
2022-08-22T03:15:40.641Z,41.57
2022-08-22T03:18:33.032Z,41.63
2022-08-22T03:21:34.696Z,41.51
2022-08-22T03:24:12.191Z,41.29
2022-08-22T03:27:03.166Z,41.62
2022-08-22T03:29:43.400Z,41.87
2022-08-22T03:32:15.222Z,41.63
2022-08-22T03:35:02.167Z,41.54
2022-08-22T03:37:40.658Z,41.58
2022-08-22T03:40:20.145Z,41.60
2022-08-22T03:43:16.270Z,41.44
2022-08-22T03:46:05.527Z,41.54
2022-08-22T03:49:00.068Z,41.66
2022-08-22T03:51:32.639Z,41.51
2022-08-22T03:54:24.821Z,41.44
2022-08-22T03:57:32.503Z,41.59
2022-08-22T04:00:12.111Z,41.58
2022-08-22T04:02:45.191Z,41.35
2022-08-22T04:05:30.915Z,41.43
2022-08-22T04:08:13.283Z,41.42
2022-08-22T04:10:44.493Z,41.11
2022-08-22T04:13:50.107Z,41.17
2022-08-22T04:16:48.090Z,41.21
2022-08-22T04:19:48.048Z,40.96
2022-08-22T04:22:33.625Z,41.13
2022-08-22T04:25:12.316Z,41.37
2022-08-22T04:27:53.289Z,41.22
2022-08-22T04:30:26.447Z,41.12
2022-08-22T04:33:02.777Z,41.15
2022-08-22T04:35:57.004Z,41.17
2022-08-22T04:39:05.035Z,41.14
2022-08-22T04:41:44.717Z,41.09
2022-08-22T04:44:19.466Z,40.89
2022-08-22T04:47:02.608Z,40.91
2022-08-22T04:49:44.384Z,40.75
2022-08-22T04:52:18.757Z,40.56
2022-08-22T04:55:01.202Z,40.41
2022-08-22T04:57:52.087Z,40.12
2022-08-22T05:00:19.700Z,40.07
2022-08-22T05:02:50.860Z,39.91
2022-08-22T05:05:24.784Z,39.59
2022-08-22T05:07:57.484Z,39.35
2022-08-22T05:10:28.032Z,39.36
2022-08-22T05:13:39.479Z,39.35
2022-08-22T05:16:15.154Z,39.31
2022-08-22T05:18:55.004Z,39.24
2022-08-22T05:21:27.204Z,39.04
2022-08-22T05:24:01.958Z,39.26
2022-08-22T05:26:35.858Z,38.96
2022-08-22T05:29:11.011Z,39.06
2022-08-22T05:31:49.688Z,38.91
2022-08-22T05:34:25.113Z,38.96
2022-08-22T05:37:00.514Z,38.68
2022-08-22T05:39:30.074Z,38.90
2022-08-22T05:42:01.640Z,38.56
2022-08-22T05:44:34.304Z,38.38
2022-08-22T05:47:03.471Z,38.43
2022-08-22T05:49:39.241Z,38.27
2022-08-22T05:52:19.764Z,38.03
2022-08-22T05:55:13.523Z,38.08
2022-08-22T05:57:47.315Z,37.97
2022-08-22T06:00:28.589Z,38.25
2022-08-22T06:03:18.020Z,38.20
2022-08-22T06:05:51.627Z,37.88
2022-08-22T06:08:21.805Z,37.45
2022-08-22T06:10:57.945Z,37.76
2022-08-22T06:13:42.085Z,37.43
2022-08-22T06:16:22.619Z,37.63
2022-08-22T06:18:52.504Z,37.71
2022-08-22T06:21:19.762Z,37.55
2022-08-22T06:24:00.209Z,37.76
2022-08-22T06:26:34.772Z,37.59
2022-08-22T06:29:03.560Z,37.35
2022-08-22T06:31:38.075Z,37.14
2022-08-22T06:34:12.393Z,37.10
2022-08-22T06:36:43.856Z,37.27
2022-08-22T06:39:16.631Z,37.09
2022-08-22T06:41:55.433Z,36.89
2022-08-22T06:44:54.626Z,37.21
2022-08-22T06:47:28.840Z,36.32
2022-08-22T06:50:05.854Z,36.88
2022-08-22T06:52:39.195Z,36.35
2022-08-22T06:55:09.478Z,35.53
2022-08-22T06:57:55.190Z,35.49
2022-08-22T07:00:22.947Z,35.76
2022-08-22T07:02:57.959Z,35.30
2022-08-22T07:05:29.164Z,35.41
2022-08-22T07:07:57.313Z,34.81
2022-08-22T07:10:25.970Z,34.91
2022-08-22T07:12:56.799Z,34.26
2022-08-22T07:15:37.708Z,34.68
2022-08-22T07:18:09.119Z,33.95
2022-08-22T07:20:45.396Z,34.13
2022-08-22T07:23:33.384Z,33.30
2022-08-22T07:26:06.692Z,33.19
2022-08-22T07:28:51.484Z,33.10
2022-08-22T07:31:37.265Z,31.87
2022-08-22T07:34:23.823Z,31.67
2022-08-22T07:37:06.859Z,31.39
2022-08-22T07:39:47.217Z,32.67
2022-08-22T07:42:17.583Z,31.28
2022-08-22T07:45:01.184Z,31.49
2022-08-22T07:48:08.773Z,31.27
2022-08-22T07:50:43.743Z,30.25
2022-08-22T07:53:34.402Z,29.75
2022-08-22T07:56:07.171Z,29.57
2022-08-22T07:58:39.797Z,29.69
2022-08-22T08:01:15.718Z,30.36
2022-08-22T08:03:49.595Z,29.80
2022-08-22T08:06:17.389Z,28.49
2022-08-22T08:08:45.580Z,27.86
2022-08-22T08:11:17.184Z,27.05
2022-08-22T08:13:50.333Z,27.20
2022-08-22T08:16:21.931Z,25.52
2022-08-22T08:18:53.145Z,25.70
2022-08-22T08:21:36.933Z,26.40
2022-08-22T08:24:07.961Z,25.31
2022-08-22T08:27:02.627Z,25.65
2022-08-22T08:29:32.239Z,25.74
2022-08-22T08:32:01.194Z,25.83
2022-08-22T08:34:35.480Z,25.43
2022-08-22T08:37:12.995Z,25.64
2022-08-22T08:39:50.864Z,23.66
2022-08-22T08:42:59.974Z,24.98
2022-08-22T08:45:38.673Z,24.16
2022-08-22T08:48:54.359Z,24.82
2022-08-22T08:51:46.370Z,23.77
2022-08-22T08:54:16.707Z,23.28
2022-08-22T08:57:12.690Z,23.57
2022-08-22T09:00:14.505Z,23.92
2022-08-22T09:02:44.891Z,24.46
2022-08-22T09:05:43.254Z,23.56
2022-08-22T09:08:56.019Z,23.92
2022-08-22T09:12:04.731Z,23.21
2022-08-22T09:15:25.691Z,23.17
2022-08-22T09:18:08.658Z,23.42
2022-08-22T09:20:56.355Z,22.86
2022-08-22T09:23:53.307Z,20.82
2022-08-22T09:26:23.799Z,21.35
2022-08-22T09:29:12.143Z,21.57
2022-08-22T09:31:59.686Z,22.64
2022-08-22T09:34:57.017Z,22.61
2022-08-22T09:37:53.226Z,22.16
2022-08-22T09:40:31.348Z,22.25
2022-08-22T09:43:06.615Z,22.34
2022-08-22T09:45:50.078Z,22.71
2022-08-22T09:48:29.922Z,21.54
2022-08-22T09:51:32.001Z,22.25
2022-08-22T09:54:31.260Z,21.93
2022-08-22T09:57:10.227Z,22.01
2022-08-22T09:59:58.121Z,22.03
2022-08-22T10:02:44.256Z,22.06
2022-08-22T10:05:39.467Z,21.70
2022-08-22T10:08:14.482Z,21.52
2022-08-22T10:11:13.290Z,21.61
2022-08-22T10:14:04.790Z,22.13
2022-08-22T10:16:43.326Z,22.41
2022-08-22T10:19:28.732Z,22.23
2022-08-22T10:22:17.090Z,22.39
2022-08-22T10:25:23.205Z,22.07
2022-08-22T10:28:15.209Z,22.19
2022-08-22T10:31:08.180Z,21.95
2022-08-22T10:33:42.584Z,22.97
2022-08-22T10:36:23.798Z,21.35
2022-08-22T10:39:00.127Z,21.45
2022-08-22T10:41:50.835Z,22.47
2022-08-22T10:44:53.758Z,22.01
2022-08-22T10:47:28.783Z,21.53
2022-08-22T10:50:10.722Z,22.04
2022-08-22T10:52:49.089Z,21.64
2022-08-22T10:55:27.130Z,21.60
2022-08-22T10:58:02.241Z,21.74
2022-08-22T11:00:46.013Z,22.20
2022-08-22T11:03:34.774Z,22.32
2022-08-22T11:06:31.391Z,21.85
2022-08-22T11:09:00.159Z,21.76
2022-08-22T11:11:33.474Z,21.51
2022-08-22T11:14:22.487Z,20.89
2022-08-22T11:17:11.964Z,21.02
2022-08-22T11:20:00.276Z,21.65
2022-08-22T11:22:42.175Z,21.63
2022-08-22T11:25:26.882Z,21.69
2022-08-22T11:28:22.346Z,20.83
2022-08-22T11:31:07.232Z,21.46
2022-08-22T11:33:48.401Z,21.87
2022-08-22T11:36:37.557Z,21.19
2022-08-22T11:39:27.742Z,21.26
2022-08-22T11:42:07.391Z,21.76
2022-08-22T11:44:50.300Z,21.88
2022-08-22T11:47:26.710Z,20.68
2022-08-22T11:50:35.345Z,20.62
2022-08-22T11:53:26.824Z,20.43
2022-08-22T11:56:33.364Z,21.26
2022-08-22T11:59:22.830Z,20.42
2022-08-22T12:02:00.839Z,20.40
2022-08-22T12:04:42.680Z,21.01
2022-08-22T12:07:34.752Z,20.60
2022-08-22T12:10:27.352Z,20.76
2022-08-22T12:13:04.940Z,19.89
2022-08-22T12:16:09.530Z,21.28
2022-08-22T12:18:52.757Z,21.00
2022-08-22T12:21:29.679Z,20.62
2022-08-22T12:24:19.441Z,20.28
2022-08-22T12:26:48.440Z,20.50
2022-08-22T12:29:49.197Z,20.45
2022-08-22T12:32:49.386Z,20.37
2022-08-22T12:35:45.852Z,19.64
2022-08-22T12:38:38.520Z,20.37
2022-08-22T12:41:46.848Z,20.62
2022-08-22T12:44:33.721Z,19.92
2022-08-22T12:47:34.438Z,20.36
2022-08-22T12:50:26.398Z,19.93
2022-08-22T12:53:02.080Z,20.42
2022-08-22T12:55:43.910Z,20.73
2022-08-22T12:58:23.230Z,20.33
2022-08-22T13:00:52.611Z,20.02
2022-08-22T13:03:33.004Z,20.52
2022-08-22T13:06:24.917Z,19.74
2022-08-22T13:08:53.528Z,20.67
2022-08-22T13:11:23.586Z,20.22
2022-08-22T13:13:57.254Z,20.13
2022-08-22T13:16:26.219Z,20.18
2022-08-22T13:19:07.387Z,20.19
2022-08-22T13:21:43.520Z,19.40
2022-08-22T13:24:22.736Z,19.85
2022-08-22T13:27:15.009Z,20.56
2022-08-22T13:29:49.870Z,20.03
2022-08-22T13:32:46.672Z,19.73
2022-08-22T13:35:26.080Z,20.50
2022-08-22T13:38:04.803Z,19.76
2022-08-22T13:40:34.092Z,19.93
2022-08-22T13:43:11.891Z,20.08
2022-08-22T13:45:48.505Z,20.21
2022-08-22T13:48:16.274Z,20.11
2022-08-22T13:51:22.539Z,20.25
2022-08-22T13:54:02.324Z,19.93
2022-08-22T13:56:50.868Z,20.00
2022-08-22T13:59:50.907Z,20.60
2022-08-22T14:02:43.364Z,20.20
2022-08-22T14:05:46.443Z,20.14
2022-08-22T14:08:32.407Z,19.96
2022-08-22T14:11:30.902Z,19.96
2022-08-22T14:14:02.474Z,20.13
2022-08-22T14:16:38.816Z,19.99
2022-08-22T14:19:14.646Z,19.93
2022-08-22T14:22:06.548Z,19.30
2022-08-22T14:24:45.451Z,19.94
2022-08-22T14:27:27.605Z,20.21
2022-08-22T14:30:13.568Z,19.76
2022-08-22T14:33:17.601Z,19.64
2022-08-22T14:35:52.813Z,20.26
2022-08-22T14:38:37.768Z,19.72
2022-08-22T14:41:26.989Z,20.54
2022-08-22T14:44:02.345Z,20.01
2022-08-22T14:46:41.975Z,20.16
2022-08-22T14:49:18.834Z,20.34
2022-08-22T14:51:55.277Z,19.85
2022-08-22T14:54:29.103Z,20.30
2022-08-22T14:56:59.209Z,20.28
2022-08-22T14:59:32.424Z,20.07
2022-08-22T15:02:10.584Z,20.17
2022-08-22T15:04:42.266Z,20.04
2022-08-22T15:07:11.088Z,20.19
2022-08-22T15:09:52.321Z,20.41
2022-08-22T15:12:29.010Z,20.71
2022-08-22T15:15:03.111Z,20.64
2022-08-22T15:17:51.069Z,20.56
2022-08-22T15:20:38.263Z,20.45
2022-08-22T15:23:23.028Z,20.52
2022-08-22T15:26:03.973Z,20.71
2022-08-22T15:28:53.333Z,21.01
2022-08-22T15:31:22.424Z,20.85
2022-08-22T15:33:51.743Z,21.20
2022-08-22T15:36:25.102Z,20.56
2022-08-22T15:39:27.669Z,20.98
2022-08-22T15:41:56.355Z,21.21
2022-08-22T15:44:33.055Z,21.01
2022-08-22T15:47:28.473Z,20.80
2022-08-22T15:50:05.402Z,21.46
2022-08-22T15:52:59.008Z,21.06
2022-08-22T15:55:34.542Z,20.88
2022-08-22T15:58:09.090Z,21.04
2022-08-22T16:00:45.133Z,20.79
2022-08-22T16:03:25.871Z,21.33
2022-08-22T16:05:55.885Z,21.12
2022-08-22T16:08:52.735Z,20.66
2022-08-22T16:11:33.791Z,21.18
2022-08-22T16:14:21.247Z,20.97
2022-08-22T16:17:05.314Z,20.95
2022-08-22T16:19:35.473Z,21.18
2022-08-22T16:22:07.409Z,21.37
2022-08-22T16:24:58.783Z,21.55
2022-08-22T16:27:28.060Z,21.65
2022-08-22T16:30:08.363Z,21.53
2022-08-22T16:32:36.592Z,21.42
2022-08-22T16:35:04.453Z,21.71
2022-08-22T16:37:46.938Z,21.55
2022-08-22T16:40:21.375Z,21.65
2022-08-22T16:43:10.743Z,22.06
2022-08-22T16:45:45.772Z,21.94
2022-08-22T16:48:27.764Z,22.16
2022-08-22T16:51:05.541Z,22.23
2022-08-22T16:53:39.125Z,22.08
2022-08-22T16:56:51.740Z,22.42
2022-08-22T16:59:38.593Z,22.52
2022-08-22T17:02:35.424Z,22.67
2022-08-22T17:05:45.624Z,22.78
2022-08-22T17:08:34.335Z,22.90
2022-08-22T17:11:20.674Z,23.24
2022-08-22T17:14:03.839Z,22.99
2022-08-22T17:16:54.932Z,23.25
2022-08-22T17:20:03.819Z,23.26
2022-08-22T17:23:00.240Z,23.50
2022-08-22T17:25:38.298Z,23.54
2022-08-22T17:28:13.644Z,23.44
2022-08-22T17:30:46.595Z,23.80
2022-08-22T17:33:52.286Z,23.85
2022-08-22T17:36:31.775Z,24.09
2022-08-22T17:39:36.266Z,24.18
2022-08-22T17:42:25.724Z,23.81
2022-08-22T17:45:03.739Z,24.23
2022-08-22T17:47:40.249Z,24.04
2022-08-22T17:50:21.175Z,24.27
2022-08-22T17:53:16.294Z,24.20
2022-08-22T17:56:19.467Z,24.42
2022-08-22T17:58:59.953Z,24.42
2022-08-22T18:01:42.646Z,24.59
2022-08-22T18:04:20.217Z,24.39
2022-08-22T18:07:00.883Z,24.43
2022-08-22T18:09:40.425Z,24.77
2022-08-22T18:12:17.903Z,24.56
2022-08-22T18:14:59.530Z,24.77
2022-08-22T18:17:40.284Z,25.08
2022-08-22T18:20:23.133Z,25.02
2022-08-22T18:23:39.197Z,24.82
2022-08-22T18:26:13.944Z,25.18
2022-08-22T18:29:11.373Z,25.11
2022-08-22T18:32:03.958Z,25.31
2022-08-22T18:34:49.065Z,25.04
2022-08-22T18:37:46.892Z,25.24
2022-08-22T18:40:51.508Z,25.36
2022-08-22T18:43:37.364Z,25.65
2022-08-22T18:46:27.018Z,25.48
2022-08-22T18:49:14.654Z,25.50
2022-08-22T18:51:42.683Z,25.65
2022-08-22T18:54:12.675Z,25.99
2022-08-22T18:56:50.848Z,26.19
2022-08-22T18:59:21.203Z,26.30
2022-08-22T19:02:12.187Z,26.25
2022-08-22T19:05:13.413Z,26.21
2022-08-22T19:07:47.128Z,26.48
2022-08-22T19:10:20.986Z,26.36
2022-08-22T19:13:06.846Z,26.11
2022-08-22T19:15:48.254Z,26.19
2022-08-22T19:18:31.601Z,26.59
2022-08-22T19:21:32.396Z,26.39
2022-08-22T19:24:00.842Z,26.89
2022-08-22T19:26:37.044Z,26.56
2022-08-22T19:29:30.082Z,26.97
2022-08-22T19:32:02.051Z,27.19
2022-08-22T19:34:35.320Z,27.24
2022-08-22T19:37:32.391Z,27.28
2022-08-22T19:40:02.112Z,27.37
2022-08-22T19:42:36.603Z,27.38
2022-08-22T19:45:09.798Z,27.39
2022-08-22T19:47:40.769Z,27.27
2022-08-22T19:50:18.396Z,27.28
2022-08-22T19:53:22.723Z,27.42
2022-08-22T19:56:22.044Z,27.37
2022-08-22T19:58:54.274Z,27.78
2022-08-22T20:01:56.586Z,27.63
2022-08-22T20:04:35.149Z,27.52
2022-08-22T20:07:24.232Z,27.80
2022-08-22T20:10:04.492Z,27.85
2022-08-22T20:12:44.763Z,28.21
2022-08-22T20:15:26.100Z,27.96
2022-08-22T20:20:59.147Z,28.08
2022-08-22T20:23:32.349Z,27.95
2022-08-22T20:26:00.746Z,28.18
2022-08-22T20:28:37.216Z,28.22
2022-08-22T20:31:12.525Z,28.32
2022-08-22T20:33:43.393Z,28.28
2022-08-22T20:36:28.500Z,28.90
2022-08-22T20:39:06.002Z,28.42
2022-08-22T20:41:40.684Z,28.48
2022-08-22T20:44:12.753Z,28.37
2022-08-22T20:46:46.357Z,28.38
2022-08-22T20:49:30.548Z,28.45
2022-08-22T20:52:04.057Z,28.35
2022-08-22T20:54:34.717Z,28.72
2022-08-22T20:57:18.750Z,28.66
2022-08-22T21:00:13.004Z,28.89
2022-08-22T21:03:22.467Z,28.68
2022-08-22T21:05:49.757Z,28.52
2022-08-22T21:08:24.559Z,28.96
2022-08-22T21:11:24.976Z,29.05
2022-08-22T21:13:53.656Z,29.00
2022-08-22T21:16:33.581Z,29.18
2022-08-22T21:19:04.531Z,29.00
2022-08-22T21:21:34.743Z,29.27
2022-08-22T21:24:07.990Z,29.04
2022-08-22T21:26:39.225Z,29.05
2022-08-22T21:29:09.234Z,29.32
2022-08-22T21:31:49.737Z,29.18
2022-08-22T21:34:41.263Z,29.17
2022-08-22T21:37:14.816Z,29.33
2022-08-22T21:39:46.206Z,29.19
2022-08-22T21:42:31.348Z,29.35
2022-08-22T21:45:08.250Z,29.64
2022-08-22T21:47:38.874Z,29.65
2022-08-22T21:50:21.131Z,29.83
2022-08-22T21:52:56.000Z,29.67
2022-08-22T21:55:37.382Z,29.68
2022-08-22T21:58:36.046Z,29.56
2022-08-22T22:01:31.849Z,29.82
2022-08-22T22:03:59.917Z,29.58
2022-08-22T22:06:27.466Z,29.67
2022-08-22T22:08:55.437Z,29.80
2022-08-22T22:11:22.960Z,29.71
2022-08-22T22:13:51.016Z,29.67
2022-08-22T22:16:25.389Z,29.70
2022-08-22T22:18:53.048Z,29.83
2022-08-22T22:21:20.543Z,29.93
2022-08-22T22:23:49.534Z,30.26
2022-08-22T22:26:17.050Z,30.10
2022-08-22T22:28:50.494Z,29.95
2022-08-22T22:31:19.309Z,30.13
2022-08-22T22:33:46.731Z,30.11
2022-08-22T22:36:18.524Z,30.24
2022-08-22T22:38:46.282Z,30.10
2022-08-22T22:41:13.802Z,30.42
2022-08-22T22:43:41.070Z,30.82
2022-08-22T22:46:08.885Z,30.99
2022-08-22T22:48:36.262Z,30.95
2022-08-22T22:51:09.195Z,31.39
2022-08-22T22:53:40.362Z,31.22
2022-08-22T22:56:13.389Z,31.37
2022-08-22T22:58:42.274Z,31.20
2022-08-22T23:01:21.218Z,31.38
2022-08-22T23:03:53.967Z,31.35
2022-08-22T23:06:23.953Z,31.25
2022-08-22T23:08:51.529Z,31.92
2022-08-22T23:11:25.455Z,32.37
2022-08-22T23:13:53.332Z,32.30
2022-08-22T23:16:26.579Z,32.90
2022-08-22T23:18:55.446Z,32.54
2022-08-22T23:21:30.245Z,32.98
2022-08-22T23:23:59.441Z,33.35
2022-08-22T23:26:27.320Z,33.16
2022-08-22T23:28:54.589Z,33.09
2022-08-22T23:31:32.645Z,33.54
2022-08-22T23:34:09.252Z,33.56
2022-08-22T23:36:37.594Z,33.67
2022-08-22T23:39:06.500Z,33.50
2022-08-22T23:41:34.001Z,33.97
2022-08-22T23:44:01.269Z,34.29
2022-08-22T23:46:28.503Z,34.21
2022-08-22T23:48:58.963Z,34.31
2022-08-22T23:51:26.640Z,34.62
2022-08-22T23:53:55.900Z,34.42
2022-08-22T23:56:32.681Z,34.91
2022-08-22T23:59:01.899Z,34.52
